Time;durP1;ratioP1;P1;durP2;ratioP2;P2;SDS_P1;SDS_P2;PMS_P1;PMS_P2;Temp;Humidity;BMP_temperature;BMP_pressure;BME280_temperature;BME280_humidity;BME280_pressure;Samples;Min_cycle;Max_cycle;Signal;HPM_P1;HPM_P2
2023/03/28 00:01:01;;;;;;;2.63;1.30;;;;;;;2.60;97.86;99339.91;6227523;22;20165;-83
2023/03/28 00:03:28;;;;;;;1.63;1.20;;;;;;;2.67;98.25;99345.28;6227213;22;20174;-84
2023/03/28 00:06:01;;;;;;;1.53;1.10;;;;;;;2.61;98.01;99354.75;6202742;22;20168;-83
2023/03/28 00:08:30;;;;;;;2.37;1.33;;;;;;;2.59;99.16;99358.56;6203950;22;20188;-82
2023/03/28 00:11:17;;;;;;;1.77;1.30;;;;;;;2.53;99.84;99349.50;6202306;22;20169;-84
2023/03/28 00:13:45;;;;;;;1.37;1.10;;;;;;;2.54;100.00;99350.34;6203648;22;20243;-82
2023/03/28 00:16:13;;;;;;;1.77;1.30;;;;;;;2.56;99.98;99364.22;6227397;22;20168;-83
2023/03/28 00:18:41;;;;;;;2.33;1.10;;;;;;;2.60;98.71;99357.59;6202633;22;20172;-83
2023/03/28 00:21:23;;;;;;;1.60;1.00;;;;;;;2.66;98.13;99360.34;6202450;22;20598;-82
2023/03/28 00:24:00;;;;;;;1.87;0.97;;;;;;;2.67;97.00;99359.34;6203273;22;20165;-82
2023/03/28 00:26:29;;;;;;;1.13;1.00;;;;;;;2.64;96.01;99362.34;6227062;22;20164;-82
2023/03/28 00:29:00;;;;;;;2.37;0.97;;;;;;;2.84;95.52;99369.81;6203571;22;20184;-82
2023/03/28 00:31:28;;;;;;;2.53;1.17;;;;;;;2.71;96.02;99374.88;6216064;22;20204;-82
2023/03/28 00:33:56;;;;;;;1.80;1.03;;;;;;;2.73;96.15;99378.97;6227025;22;20164;-83
2023/03/28 00:36:28;;;;;;;1.60;1.00;;;;;;;2.69;96.08;99382.16;6202362;22;20168;-82
2023/03/28 00:38:56;;;;;;;2.33;1.00;;;;;;;2.73;95.81;99391.38;6203172;22;20231;-82
2023/03/28 00:41:25;;;;;;;1.57;1.10;;;;;;;2.64;96.23;99390.63;6202280;22;20595;-85
2023/03/28 00:43:54;;;;;;;1.60;1.10;;;;;;;2.58;96.51;99378.09;6227569;22;20200;-82
2023/03/28 00:46:36;;;;;;;1.87;1.10;;;;;;;2.57;96.24;99384.38;6226931;22;20222;-82
2023/03/28 00:49:12;;;;;;;1.37;1.20;;;;;;;2.55;95.64;99391.66;6202027;22;20619;-82
2023/03/28 00:51:43;;;;;;;1.00;0.97;;;;;;;2.67;93.94;99387.63;6226978;22;20163;-83
2023/03/28 00:54:14;;;;;;;1.77;0.97;;;;;;;2.54;93.60;99390.00;6201896;22;20160;-82
2023/03/28 00:56:43;;;;;;;1.03;0.90;;;;;;;2.69;93.87;99395.38;6228199;22;20149;-82
2023/03/28 00:59:14;;;;;;;1.27;1.10;;;;;;;2.55;93.92;99395.13;6202125;22;20173;-84
2023/03/28 01:01:40;;;;;;;1.27;1.13;;;;;;;2.43;94.24;99393.88;6202137;22;20160;-83
2023/03/28 01:04:08;;;;;;;1.50;0.90;;;;;;;2.47;94.36;99399.66;6201948;22;20168;-83
2023/03/28 01:06:39;;;;;;;1.37;1.10;;;;;;;2.58;93.77;99400.06;6227393;22;20176;-83
2023/03/28 01:09:08;;;;;;;1.30;1.20;;;;;;;2.54;93.59;99397.94;6202900;22;20184;-83
2023/03/28 01:11:37;;;;;;;0.90;0.90;;;;;;;2.53;93.87;99396.28;6226866;22;20164;-81
2023/03/28 01:14:06;;;;;;;1.10;1.00;;;;;;;2.41;93.24;99387.94;6202595;22;20164;-82
2023/03/28 01:16:32;;;;;;;1.13;1.00;;;;;;;2.41;93.70;99402.97;6227024;22;20194;-82
2023/03/28 01:19:01;;;;;;;1.50;1.10;;;;;;;2.56;93.45;99401.25;6227362;22;20202;-83
2023/03/28 01:21:47;;;;;;;1.40;1.00;;;;;;;2.50;93.76;99399.28;6226612;22;20172;-81
2023/03/28 01:24:27;;;;;;;1.70;1.10;;;;;;;2.44;94.47;99394.69;6202998;22;20160;-82
2023/03/28 01:26:57;;;;;;;1.73;1.40;;;;;;;2.47;95.93;99399.66;6251704;22;20222;-83
2023/03/28 01:29:46;;;;;;;1.90;1.00;;;;;;;2.41;96.46;99397.69;6251540;22;20188;-82
2023/03/28 01:32:43;;;;;;;2.53;1.17;;;;;;;2.26;98.01;99397.59;6252220;22;20200;-84
2023/03/28 01:35:40;;;;;;;2.33;1.23;;;;;;;2.18;99.59;99409.03;6252990;22;20171;-83
2023/03/28 01:38:35;;;;;;;1.53;1.13;;;;;;;2.40;99.64;99409.25;6227146;22;20164;-84
2023/03/28 01:41:03;;;;;;;1.30;1.20;;;;;;;2.42;99.66;99396.69;6227171;22;20187;-83
2023/03/28 01:43:47;;;;;;;1.43;1.20;;;;;;;2.45;99.97;99402.47;6278767;22;20605;-83
2023/03/28 01:46:31;;;;;;;1.23;1.13;;;;;;;2.41;100.00;99416.19;6231798;22;20167;-84
2023/03/28 01:49:29;;;;;;;2.10;1.40;;;;;;;2.45;100.00;99401.63;6256805;22;20229;-82
2023/03/28 01:52:14;;;;;;;2.40;1.50;;;;;;;2.43;100.00;99400.97;6255925;22;20167;-83
2023/03/28 01:54:57;;;;;;;1.50;1.40;;;;;;;2.35;100.00;99420.34;6257079;22;20160;-81
2023/03/28 01:58:00;;;;;;;2.17;1.10;;;;;;;2.42;98.16;99404.63;6232159;22;20250;-83
2023/03/28 02:00:44;;;;;;;1.60;1.20;;;;;;;2.47;98.36;99418.16;6225559;22;20163;-83
2023/03/28 02:03:30;;;;;;;1.37;1.07;;;;;;;2.48;96.75;99402.09;6257387;22;20170;-83
2023/03/28 02:06:02;;;;;;;1.40;1.07;;;;;;;2.45;96.79;99415.69;6232871;22;20194;-81
2023/03/28 02:08:31;;;;;;;1.77;1.03;;;;;;;2.49;96.21;99424.91;6231541;22;20192;-84
2023/03/28 02:11:20;;;;;;;3.03;1.10;;;;;;;2.56;92.97;99422.41;6240605;22;20186;-82
2023/03/28 02:13:59;;;;;;;1.47;1.37;;;;;;;2.53;93.11;99413.00;6258570;22;20167;-83
2023/03/28 02:16:53;;;;;;;1.57;1.20;;;;;;;2.62;91.61;99419.06;6239505;22;20164;-82
2023/03/28 02:19:54;;;;;;;3.83;1.50;;;;;;;2.47;92.87;99423.44;6242517;22;20170;-82
2023/03/28 02:22:47;;;;;;;2.20;1.37;;;;;;;2.52;92.66;99421.91;6263262;22;20199;-82
2023/03/28 02:25:41;;;;;;;1.50;1.37;;;;;;;2.64;92.79;99425.00;6253958;22;20187;-81
2023/03/28 02:28:28;;;;;;;1.70;1.50;;;;;;;2.53;93.63;99425.38;6264889;22;20183;-82
2023/03/28 02:31:08;;;;;;;1.97;1.07;;;;;;;2.59;95.04;99430.00;6258752;22;20240;-81
2023/03/28 02:33:42;;;;;;;2.30;1.30;;;;;;;2.51;95.93;99430.88;6256062;22;20692;-83
2023/03/28 02:36:34;;;;;;;1.60;1.50;;;;;;;2.50;97.57;99434.50;6231625;22;20167;-83
2023/03/28 02:39:31;;;;;;;2.23;1.70;;;;;;;2.46;98.92;99427.91;6256228;22;20251;-82
2023/03/28 02:42:24;;;;;;;1.93;1.70;;;;;;;2.36;99.29;99445.81;6281419;22;20644;-83
2023/03/28 02:45:13;;;;;;;2.03;1.70;;;;;;;2.36;99.83;99455.56;6256051;22;20163;-82
2023/03/28 02:48:21;;;;;;;1.87;1.77;;;;;;;2.45;98.49;99449.22;6255954;22;20160;-82
2023/03/28 02:51:21;;;;;;;2.43;1.50;;;;;;;2.40;99.04;99448.91;6198762;22;20167;-84
2023/03/28 02:54:17;;;;;;;1.43;1.33;;;;;;;2.36;99.27;99461.66;6256404;22;20167;-85
2023/03/28 02:57:05;;;;;;;3.23;1.60;;;;;;;2.29;99.79;99454.59;6255851;22;20266;-81
2023/03/28 02:59:45;;;;;;;1.87;1.70;;;;;;;2.29;100.00;99465.16;6233490;22;20194;-82
2023/03/28 03:02:16;;;;;;;2.43;1.50;;;;;;;2.33;99.42;99464.66;6256131;22;20182;-84
2023/03/28 03:04:44;;;;;;;1.93;1.63;;;;;;;2.28;100.00;99459.06;6230629;22;20162;-85
2023/03/28 03:07:10;;;;;;;2.23;1.90;;;;;;;2.32;99.45;99464.81;6230929;22;20636;-82
2023/03/28 03:09:39;;;;;;;2.93;1.97;;;;;;;2.16;99.94;99474.44;6256323;22;20207;-82
2023/03/28 03:12:06;;;;;;;2.87;1.80;;;;;;;2.41;99.39;99474.38;6232545;22;20163;-82
2023/03/28 03:14:33;;;;;;;2.70;1.83;;;;;;;2.37;99.87;99478.34;6258327;22;20171;-83
2023/03/28 03:17:20;;;;;;;2.23;2.03;;;;;;;2.18;100.00;99475.13;6267169;22;20167;-81
2023/03/28 03:19:47;;;;;;;2.83;2.10;;;;;;;2.32;100.00;99483.31;6233099;22;20246;-82
2023/03/28 03:22:14;;;;;;;2.77;1.80;;;;;;;2.30;100.00;99486.13;6258087;22;20171;-83
2023/03/28 03:24:50;;;;;;;1.80;1.60;;;;;;;2.19;100.00;99487.31;6260188;22;20170;-82
2023/03/28 03:27:17;;;;;;;1.50;1.40;;;;;;;2.23;99.60;99493.09;6258518;22;20235;-83
2023/03/28 03:29:45;;;;;;;1.40;1.30;;;;;;;2.33;97.41;99485.81;6258100;22;20194;-83
2023/03/28 03:32:14;;;;;;;1.87;1.40;;;;;;;2.16;98.38;99490.31;6234631;22;20290;-84
2023/03/28 03:34:46;;;;;;;2.63;1.60;;;;;;;2.22;98.39;99489.63;6235126;22;20164;-83
2023/03/28 03:37:13;;;;;;;2.80;1.50;;;;;;;2.25;97.54;99498.19;6258227;22;20613;-82
2023/03/28 03:39:40;;;;;;;1.40;1.30;;;;;;;2.30;96.58;99495.88;6258297;22;20156;-83
2023/03/28 03:42:10;;;;;;;1.70;1.30;;;;;;;2.23;96.67;99501.03;6259251;22;20159;-82
2023/03/28 03:44:40;;;;;;;2.37;1.40;;;;;;;2.18;97.42;99493.63;6258066;22;20175;-82
2023/03/28 03:47:07;;;;;;;1.40;1.30;;;;;;;2.11;97.89;99500.56;6233924;22;20190;-83
2023/03/28 03:49:34;;;;;;;3.27;1.50;;;;;;;2.06;97.54;99504.69;6257900;22;20188;-82
2023/03/28 03:52:02;;;;;;;1.93;1.57;;;;;;;2.20;97.00;99501.34;6233745;22;20217;-81
2023/03/28 03:54:30;;;;;;;2.53;1.30;;;;;;;2.18;97.16;99495.44;6258178;22;20168;-82
2023/03/28 03:56:57;;;;;;;2.90;1.40;;;;;;;2.16;96.84;99498.22;6232922;22;20171;-83
2023/03/28 03:59:26;;;;;;;2.00;1.50;;;;;;;2.14;96.94;99507.34;6233217;22;20221;-81
2023/03/28 04:01:57;;;;;;;1.63;1.37;;;;;;;2.10;97.59;99495.47;6234899;22;20250;-82
2023/03/28 04:04:24;;;;;;;1.70;1.53;;;;;;;2.07;98.13;99498.41;6258618;22;20202;-83
2023/03/28 04:07:15;;;;;;;1.50;1.40;;;;;;;2.15;97.94;99495.75;6262256;22;20167;-82
2023/03/28 04:09:44;;;;;;;3.23;1.77;;;;;;;2.08;97.54;99495.63;6258187;22;20637;-85
2023/03/28 04:12:14;;;;;;;1.90;1.50;;;;;;;2.04;98.25;99496.94;6233147;22;20175;-84
2023/03/28 04:14:45;;;;;;;2.20;1.63;;;;;;;2.06;98.34;99500.22;6258424;22;20246;-83
2023/03/28 04:17:33;;;;;;;2.40;1.40;;;;;;;2.04;99.37;99511.97;6265996;22;20158;-83
2023/03/28 04:20:16;;;;;;;2.47;1.53;;;;;;;2.01;99.25;99509.66;6235343;22;20621;-83
2023/03/28 04:23:12;;;;;;;2.37;1.57;;;;;;;1.88;99.85;99509.34;6267593;22;20614;-81
2023/03/28 04:25:40;;;;;;;1.37;1.10;;;;;;;2.01;98.99;99517.56;6257456;22;20176;-81
2023/03/28 04:28:19;;;;;;;1.43;1.10;;;;;;;2.11;98.50;99519.06;6263441;22;20193;-87
2023/03/28 04:30:57;;;;;;;2.03;1.40;;;;;;;2.02;98.49;99520.06;6233225;22;20195;-82
2023/03/28 04:33:29;;;;;;;1.43;1.03;;;;;;;2.02;97.95;99532.44;6270454;22;20207;-82
2023/03/28 04:36:00;;;;;;;1.87;1.20;;;;;;;2.05;98.38;99532.94;6257639;22;20242;-82
2023/03/28 04:38:30;;;;;;;1.10;0.93;;;;;;;2.12;97.11;99536.56;6257623;22;20163;-83
2023/03/28 04:41:12;;;;;;;3.00;1.00;;;;;;;2.25;96.74;99541.31;6260653;22;20250;-84
2023/03/28 04:44:02;;;;;;;1.80;0.90;;;;;;;2.16;96.91;99537.88;6267175;22;20171;-82
2023/03/28 04:46:34;;;;;;;0.70;0.70;;;;;;;2.14;96.34;99544.34;6258792;22;20164;-82
2023/03/28 04:49:08;;;;;;;0.93;0.80;;;;;;;2.15;96.95;99544.16;6235198;22;20192;-82
2023/03/28 04:51:35;;;;;;;0.97;0.83;;;;;;;2.09;95.95;99549.31;6232056;22;20242;-81
2023/03/28 04:54:02;;;;;;;1.07;0.80;;;;;;;2.12;96.10;99549.78;6232183;22;20167;-83
2023/03/28 04:57:01;;;;;;;1.93;0.80;;;;;;;2.27;95.27;99549.94;6264070;22;20164;-83
2023/03/28 04:59:42;;;;;;;1.20;0.90;;;;;;;2.37;94.92;99547.94;6260662;22;20170;-83
2023/03/28 05:02:16;;;;;;;2.10;0.80;;;;;;;2.32;94.96;99552.06;6235649;22;20229;-83
2023/03/28 05:04:51;;;;;;;0.80;0.80;;;;;;;2.43;93.66;99549.03;6235371;22;20628;-87
2023/03/28 05:07:18;;;;;;;1.27;0.77;;;;;;;2.37;93.39;99558.50;6232592;22;20193;-85
2023/03/28 05:09:45;;;;;;;1.00;0.70;;;;;;;2.49;92.29;99562.44;6231812;22;20183;-82
2023/03/28 05:12:12;;;;;;;1.37;0.60;;;;;;;2.64;91.46;99557.25;6257169;22;20172;-83
2023/03/28 05:14:56;;;;;;;1.00;0.90;;;;;;;2.60;91.68;99558.59;6239732;22;20167;-82
2023/03/28 05:17:23;;;;;;;1.60;0.90;;;;;;;2.75;91.79;99559.56;6232140;22;20167;-87
2023/03/28 05:19:59;;;;;;;1.70;0.80;;;;;;;2.72;90.65;99556.41;6237278;22;20191;-84
2023/03/28 05:22:33;;;;;;;1.47;0.83;;;;;;;2.89;89.53;99565.94;6235630;22;20234;-83
2023/03/28 05:25:02;;;;;;;1.20;0.70;;;;;;;3.06;89.61;99570.97;6232723;22;20233;-84
2023/03/28 05:27:29;;;;;;;1.73;1.00;;;;;;;3.12;89.03;99555.41;6258149;22;20191;-81
2023/03/28 05:29:56;;;;;;;1.50;0.97;;;;;;;3.12;88.64;99573.94;6257290;22;20187;-84
2023/03/28 05:32:23;;;;;;;1.57;0.80;;;;;;;3.30;87.83;99575.31;6226848;22;20164;-83
2023/03/28 05:34:53;;;;;;;1.27;0.90;;;;;;;3.31;87.07;99581.44;6257582;22;20164;-86
2023/03/28 05:37:25;;;;;;;1.90;0.80;;;;;;;3.38;87.83;99587.69;6233986;22;20160;-82
2023/03/28 05:39:54;;;;;;;0.93;0.90;;;;;;;3.51;86.66;99582.63;6232649;22;20190;-84
2023/03/28 05:42:21;;;;;;;2.17;0.90;;;;;;;3.54;86.28;99580.47;6231777;22;20164;-83
2023/03/28 05:44:48;;;;;;;3.47;1.10;;;;;;;3.60;85.91;99580.75;6231949;22;20222;-82
2023/03/28 05:47:38;;;;;;;2.40;1.00;;;;;;;3.67;84.15;99589.66;6262905;22;20163;-86
2023/03/28 05:50:06;;;;;;;1.50;1.37;;;;;;;3.84;83.56;99577.94;6256830;22;20184;-83
2023/03/28 05:52:33;;;;;;;1.03;0.80;;;;;;;3.88;82.47;99581.88;6232210;22;20168;-84
2023/03/28 05:55:05;;;;;;;1.50;1.10;;;;;;;4.04;81.82;99588.88;6233950;22;20164;-85
2023/03/28 05:57:32;;;;;;;1.23;1.00;;;;;;;4.20;81.28;99576.28;6231609;22;20168;-82
2023/03/28 06:00:02;;;;;;;1.60;1.20;;;;;;;4.56;79.48;99589.72;6232076;22;20250;-83
2023/03/28 06:02:32;;;;;;;1.43;1.00;;;;;;;4.60;79.34;99582.19;6234041;22;20190;-84
2023/03/28 06:04:59;;;;;;;1.20;1.10;;;;;;;4.68;78.19;99590.91;6232061;22;20167;-86
2023/03/28 06:07:29;;;;;;;1.97;0.90;;;;;;;4.52;77.22;99593.75;6257468;22;20168;-83
2023/03/28 06:10:10;;;;;;;1.67;1.00;;;;;;;4.39;76.84;99596.16;6237317;22;20187;-82
2023/03/28 06:12:38;;;;;;;1.70;1.00;;;;;;;4.60;76.91;99595.47;6256870;22;20191;-85
2023/03/28 06:15:05;;;;;;;1.43;1.00;;;;;;;4.72;75.98;99594.81;6231797;22;20163;-85
2023/03/28 06:17:36;;;;;;;0.70;0.70;;;;;;;4.65;74.03;99590.44;6258544;22;20190;-82
2023/03/28 06:20:05;;;;;;;1.00;0.87;;;;;;;4.74;73.44;99584.88;6231420;22;20167;-83
2023/03/28 06:22:32;;;;;;;2.63;1.10;;;;;;;4.50;72.65;99590.44;6232066;22;20175;-83
2023/03/28 06:25:08;;;;;;;1.73;1.10;;;;;;;4.44;73.39;99594.63;6234243;22;20174;-84
2023/03/28 06:27:36;;;;;;;1.33;0.90;;;;;;;4.42;73.61;99590.53;6257045;22;20170;-87
2023/03/28 06:30:04;;;;;;;1.10;0.90;;;;;;;4.38;73.65;99595.38;6256749;22;20188;-85
2023/03/28 06:32:38;;;;;;;1.43;0.70;;;;;;;4.76;72.47;99571.38;6259312;22;20167;-86
2023/03/28 06:35:06;;;;;;;1.97;0.70;;;;;;;5.05;70.85;99597.94;6231852;22;20174;-85
2023/03/28 06:37:32;;;;;;;1.07;0.73;;;;;;;5.08;69.04;99602.88;6226723;22;20168;-85
2023/03/28 06:40:03;;;;;;;1.70;0.90;;;;;;;5.03;67.88;99609.75;6233765;22;20175;-84
2023/03/28 06:42:30;;;;;;;0.60;0.60;;;;;;;4.92;66.81;99613.69;6227208;22;20196;-84
2023/03/28 06:45:11;;;;;;;1.00;0.80;;;;;;;4.92;67.48;99589.78;6259882;22;20171;-84
2023/03/28 06:47:48;;;;;;;1.33;0.87;;;;;;;4.81;65.77;99599.03;6279870;22;20173;-84
2023/03/28 06:50:17;;;;;;;1.00;0.83;;;;;;;4.97;66.43;99581.28;6257432;22;20180;-86
2023/03/28 06:53:06;;;;;;;1.33;0.80;;;;;;;5.00;67.22;99584.38;6267287;22;20163;-84
2023/03/28 06:55:34;;;;;;;2.13;1.10;;;;;;;5.06;66.30;99585.47;6227030;22;20171;-86
2023/03/28 06:58:03;;;;;;;2.73;1.00;;;;;;;5.03;66.41;99597.31;6232249;22;20163;-86
2023/03/28 07:00:47;;;;;;;2.17;0.90;;;;;;;5.21;66.77;99588.94;6235778;22;20210;-85
2023/03/28 07:03:32;;;;;;;1.33;0.77;;;;;;;5.03;66.28;99620.38;6276050;22;20162;-86
2023/03/28 07:06:04;;;;;;;1.07;0.80;;;;;;;5.26;65.78;99611.28;6231965;22;20163;-86
2023/03/28 07:08:32;;;;;;;2.13;1.03;;;;;;;5.27;66.85;99599.63;6232607;22;20198;-88
2023/03/28 07:10:59;;;;;;;0.93;0.67;;;;;;;5.31;64.35;99603.59;6231611;22;20274;-86
2023/03/28 07:13:27;;;;;;;1.60;0.90;;;;;;;5.37;64.97;99623.25;6257210;22;20168;-83
2023/03/28 07:16:15;;;;;;;1.47;0.87;;;;;;;5.19;65.32;99621.00;6238146;22;20252;-86
2023/03/28 07:18:43;;;;;;;1.30;1.00;;;;;;;5.15;65.26;99614.41;6232126;22;20170;-87
2023/03/28 07:21:15;;;;;;;1.70;0.90;;;;;;;5.36;63.75;99626.09;6233354;22;20171;-86
2023/03/28 07:23:43;;;;;;;0.97;0.70;;;;;;;5.78;63.63;99628.00;6231490;22;20168;-85
2023/03/28 07:26:13;;;;;;;1.33;0.90;;;;;;;6.05;63.80;99641.41;6233042;22;20168;-86
2023/03/28 07:28:43;;;;;;;2.30;0.93;;;;;;;6.02;64.07;99635.66;6256737;22;20239;-85
2023/03/28 07:31:10;;;;;;;1.77;0.90;;;;;;;6.06;61.89;99636.94;6256564;22;20688;-85
2023/03/28 07:33:39;;;;;;;3.23;0.90;;;;;;;5.82;62.47;99647.88;6256918;22;20250;-82
2023/03/28 07:36:12;;;;;;;1.37;0.90;;;;;;;5.91;62.86;99636.16;6233113;22;20158;-85
2023/03/28 07:38:41;;;;;;;3.30;0.80;;;;;;;5.92;62.84;99645.78;6257445;22;20168;-85
2023/03/28 07:41:08;;;;;;;2.00;0.87;;;;;;;5.76;61.68;99621.03;6231069;22;20168;-86
2023/03/28 07:43:37;;;;;;;1.83;0.80;;;;;;;5.75;61.92;99637.19;6256945;22;20163;-86
2023/03/28 07:46:07;;;;;;;2.27;0.73;;;;;;;5.77;61.56;99643.13;6231972;22;20168;-86
2023/03/28 07:48:36;;;;;;;1.50;0.70;;;;;;;5.93;61.43;99647.41;6256640;22;20202;-86
2023/03/28 07:51:05;;;;;;;2.67;0.80;;;;;;;6.01;60.56;99637.50;6256274;22;20266;-86
2023/03/28 07:53:33;;;;;;;1.53;0.73;;;;;;;6.18;61.01;99638.88;6256277;22;20606;-87
2023/03/28 07:56:00;;;;;;;1.63;0.67;;;;;;;6.23;60.60;99637.47;6256468;22;20217;-87
2023/03/28 07:58:49;;;;;;;2.50;0.87;;;;;;;6.50;61.24;99645.47;6241991;22;20267;-87
2023/03/28 08:01:17;;;;;;;1.67;0.90;;;;;;;6.35;60.58;99657.22;6233539;22;20192;-86
2023/03/28 08:03:47;;;;;;;2.00;0.80;;;;;;;6.77;60.91;99656.31;6260490;22;20164;-89
2023/03/28 08:06:14;;;;;;;2.03;1.00;;;;;;;6.88;60.02;99653.13;6233485;22;20187;-87
2023/03/28 08:08:59;;;;;;;1.23;1.13;;;;;;;6.80;57.96;99648.78;6240298;22;20663;-86
2023/03/28 08:11:40;;;;;;;2.10;0.73;;;;;;;7.00;58.57;99657.69;6254323;22;20247;-84
2023/03/28 08:14:28;;;;;;;2.77;0.87;;;;;;;7.37;57.13;99658.34;6268113;22;20211;-85
2023/03/28 08:16:56;;;;;;;0.70;0.70;;;;;;;7.32;58.29;99674.91;6234426;22;20528;-86
2023/03/28 08:19:23;;;;;;;2.40;0.80;;;;;;;7.17;59.48;99655.56;6227683;22;20168;-86
2023/03/28 08:22:22;;;;;;;2.13;1.00;;;;;;;7.39;58.24;99669.59;6264775;22;20195;-87
2023/03/28 08:25:08;;;;;;;1.80;1.10;;;;;;;7.15;58.86;99672.75;6284529;22;20168;-86
2023/03/28 08:27:37;;;;;;;1.17;0.80;;;;;;;7.44;57.16;99667.16;6229851;22;20178;-86
2023/03/28 08:30:10;;;;;;;2.53;1.00;;;;;;;7.09;58.39;99672.50;6259324;22;20183;-84
2023/03/28 08:32:48;;;;;;;0.80;0.70;;;;;;;7.38;58.92;99678.63;6237197;22;20183;-86
2023/03/28 08:35:17;;;;;;;0.77;0.77;;;;;;;6.98;59.75;99681.06;6233876;22;20165;-86
2023/03/28 08:37:47;;;;;;;1.27;1.03;;;;;;;6.80;60.47;99702.03;6234267;22;20164;-88
2023/03/28 08:40:16;;;;;;;3.03;1.40;;;;;;;6.97;60.39;99695.41;6258391;22;20168;-88
2023/03/28 08:43:12;;;;;;;1.30;1.00;;;;;;;7.40;60.23;99689.91;6233455;22;20171;-84
2023/03/28 08:45:49;;;;;;;2.70;1.30;;;;;;;7.39;61.45;99702.41;6269852;22;20172;-86
2023/03/28 08:48:18;;;;;;;1.60;1.00;;;;;;;7.33;60.28;99705.03;6234560;22;20159;-84
2023/03/28 08:50:59;;;;;;;1.53;0.83;;;;;;;7.03;62.16;99691.97;6255527;22;20524;-85
2023/03/28 08:53:33;;;;;;;2.20;1.23;;;;;;;7.26;59.64;99680.19;6233583;22;20163;-85
2023/03/28 08:56:02;;;;;;;2.60;1.20;;;;;;;7.05;59.96;99692.56;6258948;22;20170;-87
2023/03/28 08:58:46;;;;;;;2.60;1.07;;;;;;;7.30;58.92;99703.59;6233203;22;20174;-87
2023/03/28 09:01:15;;;;;;;1.70;1.00;;;;;;;6.76;60.39;99705.28;6258261;22;20214;-87
2023/03/28 09:03:42;;;;;;;1.97;1.07;;;;;;;6.33;63.07;99704.50;6258171;22;20175;-86
2023/03/28 09:06:27;;;;;;;1.37;1.00;;;;;;;6.83;63.31;99716.78;6228767;22;20179;-87
2023/03/28 09:09:00;;;;;;;1.97;1.10;;;;;;;6.89;63.52;99726.69;6231911;22;20168;-86
2023/03/28 09:11:50;;;;;;;1.50;1.13;;;;;;;6.90;58.62;99710.53;6283692;22;20191;-87
2023/03/28 09:14:36;;;;;;;1.43;1.00;;;;;;;6.73;62.53;99721.63;6270860;22;20166;-86
2023/03/28 09:17:10;;;;;;;1.50;1.30;;;;;;;6.81;62.92;99722.31;6278374;22;20172;-87
2023/03/28 09:20:10;;;;;;;2.00;1.17;;;;;;;6.83;64.19;99714.13;6279093;22;20168;-88
2023/03/28 09:23:11;;;;;;;2.43;1.27;;;;;;;6.94;64.58;99730.44;6221425;22;20176;-86
2023/03/28 09:26:16;;;;;;;1.90;1.20;;;;;;;7.36;63.57;99712.66;6263482;22;20171;-87
2023/03/28 09:29:10;;;;;;;2.33;1.30;;;;;;;7.53;62.73;99705.97;6234543;22;20159;-89
2023/03/28 09:31:45;;;;;;;2.20;1.30;;;;;;;8.16;61.92;99738.63;6249253;22;20723;-87
2023/03/28 09:34:42;;;;;;;2.13;1.10;;;;;;;7.41;63.90;99719.03;6234164;22;20235;-87
2023/03/28 09:37:34;;;;;;;1.70;1.00;;;;;;;6.46;68.33;99758.69;6250065;22;20199;-85
2023/03/28 09:40:23;;;;;;;2.47;1.60;;;;;;;6.35;69.87;99745.03;6234455;22;20199;-85
2023/03/28 09:43:40;;;;;;;4.53;1.47;;;;;;;5.59;76.02;99754.38;6206900;22;20171;-84
2023/03/28 09:46:33;;;;;;;1.93;1.30;;;;;;;5.83;73.91;99762.03;6265956;22;20629;-86
2023/03/28 09:49:22;;;;;;;2.17;1.30;;;;;;;6.19;76.62;99776.22;6261334;22;20175;-88
2023/03/28 09:52:09;;;;;;;4.00;1.73;;;;;;;6.54;75.89;99787.81;6229439;22;20156;-86
2023/03/28 09:54:40;;;;;;;1.50;1.40;;;;;;;6.69;75.86;99795.75;6228135;22;20606;-88
2023/03/28 09:57:07;;;;;;;1.23;0.90;;;;;;;5.88;75.22;99775.59;6232305;22;20597;-87
2023/03/28 09:59:46;;;;;;;1.50;0.80;;;;;;;5.84;77.29;99803.56;6272902;22;20156;-87
2023/03/28 10:02:28;;;;;;;1.77;0.80;;;;;;;6.09;80.31;99799.63;6259560;22;20623;-88
2023/03/28 10:04:59;;;;;;;1.03;0.60;;;;;;;5.58;76.74;99805.88;6245891;22;20614;-87
2023/03/28 10:07:42;;;;;;;2.57;0.90;;;;;;;5.17;77.01;99802.81;6255051;22;20167;-85
2023/03/28 10:10:32;;;;;;;1.70;1.03;;;;;;;5.25;76.92;99800.06;6241497;22;20179;-85
2023/03/28 10:13:04;;;;;;;1.10;0.70;;;;;;;5.66;77.59;99798.63;6258585;22;20171;-86
2023/03/28 10:15:44;;;;;;;2.40;0.70;;;;;;;5.50;71.64;99804.13;6258360;22;20156;-88
2023/03/28 10:18:30;;;;;;;1.60;0.73;;;;;;;5.31;70.65;99792.22;6265657;22;20232;-89
2023/03/28 10:21:25;;;;;;;1.70;0.80;;;;;;;5.53;69.68;99782.50;6263838;22;20195;-88
2023/03/28 10:24:06;;;;;;;3.90;0.80;;;;;;;5.69;70.08;99787.59;6238137;22;20164;-87
2023/03/28 10:26:35;;;;;;;2.00;0.80;;;;;;;5.97;67.12;99769.16;6233511;22;20160;-88
2023/03/28 10:29:06;;;;;;;2.00;0.70;;;;;;;6.48;65.62;99767.31;6232384;22;20168;-89
2023/03/28 10:31:37;;;;;;;1.00;0.60;;;;;;;6.76;66.66;99782.50;6257013;22;20207;-87
2023/03/28 10:34:36;;;;;;;1.20;0.80;;;;;;;5.71;70.86;99782.13;6261299;22;20167;-88
2023/03/28 10:37:31;;;;;;;2.00;1.03;;;;;;;5.74;73.46;99768.44;6267915;22;20164;-86
2023/03/28 10:40:19;;;;;;;4.30;1.40;;;;;;;6.21;77.75;99794.63;6257527;22;20304;-86
2023/03/28 10:43:14;;;;;;;3.67;1.03;;;;;;;5.68;73.14;99806.41;6263263;22;20175;-86
2023/03/28 10:46:29;;;;;;;2.63;1.20;;;;;;;5.56;71.01;99816.66;6262339;22;20248;-87
2023/03/28 10:49:18;;;;;;;4.40;0.90;;;;;;;5.31;71.62;99832.06;6265456;22;20259;-86
2023/03/28 10:51:56;;;;;;;2.37;1.00;;;;;;;5.23;70.94;99812.69;6236840;22;20187;-84
2023/03/28 10:54:30;;;;;;;3.50;0.90;;;;;;;5.39;70.80;99809.88;6257840;22;20166;-88
2023/03/28 10:57:25;;;;;;;1.73;0.70;;;;;;;5.97;70.57;99819.69;6257112;22;20163;-86
2023/03/28 11:00:02;;;;;;;1.80;0.70;;;;;;;6.83;68.76;99823.31;6257007;22;20574;-89
2023/03/28 11:03:03;;;;;;;1.97;0.90;;;;;;;7.73;68.56;99818.06;6282674;22;20170;-87
2023/03/28 11:05:52;;;;;;;1.57;0.80;;;;;;;7.39;65.09;99837.53;6235079;22;20167;-86
2023/03/28 11:08:44;;;;;;;3.90;0.90;;;;;;;7.24;64.53;99852.78;6240251;22;20170;-87
2023/03/28 11:11:43;;;;;;;2.07;0.80;;;;;;;6.66;66.87;99853.88;6259225;22;20209;-87
2023/03/28 11:14:35;;;;;;;1.83;0.63;;;;;;;6.49;69.58;99847.94;6251619;22;20259;-87
2023/03/28 11:17:26;;;;;;;1.10;0.60;;;;;;;6.15;64.50;99837.97;6256632;22;20167;-85
2023/03/28 11:20:09;;;;;;;0.90;0.60;;;;;;;6.23;66.16;99842.34;6207136;22;20174;-88
2023/03/28 11:23:08;;;;;;;0.77;0.50;;;;;;;6.46;62.09;99835.84;6282196;22;20168;-86
2023/03/28 11:26:01;;;;;;;1.73;0.90;;;;;;;7.09;62.88;99828.91;6259189;22;20233;-86
2023/03/28 11:29:15;;;;;;;1.20;0.63;;;;;;;7.29;61.26;99848.53;6233885;22;20168;-86
2023/03/28 11:32:04;;;;;;;2.47;1.00;;;;;;;7.35;60.52;99830.94;6253106;22;20262;-87
2023/03/28 11:34:36;;;;;;;4.20;3.17;;;;;;;7.65;59.66;99847.56;6284238;22;20191;-89
2023/03/28 11:37:44;;;;;;;1.53;0.70;;;;;;;7.84;59.86;99828.16;6258978;22;20168;-88
2023/03/28 11:40:22;;;;;;;1.63;0.70;;;;;;;7.94;59.72;99829.47;6285094;22;20148;-88
2023/03/28 11:42:59;;;;;;;1.13;0.60;;;;;;;8.65;56.34;99824.63;6261368;22;20171;-86
2023/03/28 11:45:30;;;;;;;0.53;0.40;;;;;;;8.22;49.71;99816.03;6259693;22;20169;-88
2023/03/28 11:48:19;;;;;;;2.00;0.60;;;;;;;8.32;50.29;99819.19;6233043;22;20476;-88
2023/03/28 11:51:02;;;;;;;1.00;0.60;;;;;;;8.00;48.28;99800.34;6229867;22;20520;-88
2023/03/28 11:53:46;;;;;;;1.57;0.50;;;;;;;8.30;48.32;99797.22;6261633;22;20168;-89
2023/03/28 11:56:25;;;;;;;0.67;0.50;;;;;;;8.25;47.18;99804.16;6259275;22;20159;-85
2023/03/28 11:59:13;;;;;;;0.30;0.30;;;;;;;7.72;43.03;99798.56;6258563;22;20247;-88
2023/03/28 12:01:46;;;;;;;1.07;0.43;;;;;;;7.39;44.13;99794.88;6233684;22;20635;-87
2023/03/28 12:04:20;;;;;;;0.63;0.50;;;;;;;7.61;43.17;99793.78;6252575;22;20175;-88
2023/03/28 12:07:09;;;;;;;0.63;0.33;;;;;;;7.61;42.45;99784.97;6256338;22;20186;-88
2023/03/28 12:10:01;;;;;;;1.93;0.70;;;;;;;8.06;44.40;99792.38;6259730;22;20164;-87
2023/03/28 12:12:35;;;;;;;1.57;0.50;;;;;;;8.32;41.89;99789.00;6253143;22;20211;-85
2023/03/28 12:15:12;;;;;;;1.60;0.60;;;;;;;8.27;40.85;99784.22;6223866;22;20199;-87
2023/03/28 12:18:06;;;;;;;1.73;0.60;;;;;;;8.38;41.42;99798.88;6267751;22;20167;-84
2023/03/28 12:20:59;;;;;;;1.73;0.50;;;;;;;8.82;41.35;99782.31;6233825;22;20167;-86
2023/03/28 12:23:41;;;;;;;2.07;0.63;;;;;;;8.86;42.03;99783.56;6254440;22;20175;-88
2023/03/28 12:26:47;;;;;;;1.03;0.50;;;;;;;8.43;41.58;99823.13;6253734;22;20685;-88
2023/03/28 12:30:06;;;;;;;1.83;0.70;;;;;;;6.83;51.41;99887.25;6258756;22;20178;-87
2023/03/28 12:32:41;;;;;;;1.17;0.80;;;;;;;5.97;62.55;99875.56;6246019;22;20299;-87